sensor_id;sensor_type;location;lat;lon;timestamp;temperature;humidity
39677;DHT22;27789;50.840;4.386;2022-11-15T00:02:07;12.50;99.90
39677;DHT22;27789;50.840;4.386;2022-11-15T00:04:32;12.50;99.90
39677;DHT22;27789;50.840;4.386;2022-11-15T00:06:58;12.60;99.90
39677;DHT22;27789;50.840;4.386;2022-11-15T00:09:24;12.50;99.90
39677;DHT22;27789;50.840;4.386;2022-11-15T00:11:51;12.50;99.90
39677;DHT22;27789;50.840;4.386;2022-11-15T00:14:16;12.50;99.90
39677;DHT22;27789;50.840;4.386;2022-11-15T00:16:43;12.50;99.90
39677;DHT22;27789;50.840;4.386;2022-11-15T00:19:09;12.50;99.90
39677;DHT22;27789;50.840;4.386;2022-11-15T00:21:34;12.60;99.90
39677;DHT22;27789;50.840;4.386;2022-11-15T00:24:00;12.60;99.90
39677;DHT22;27789;50.840;4.386;2022-11-15T00:26:26;12.60;99.90
39677;DHT22;27789;50.840;4.386;2022-11-15T00:28:52;12.60;99.90
39677;DHT22;27789;50.840;4.386;2022-11-15T00:31:18;12.70;99.90
39677;DHT22;27789;50.840;4.386;2022-11-15T00:33:44;12.70;99.90
39677;DHT22;27789;50.840;4.386;2022-11-15T00:36:10;12.70;99.90
39677;DHT22;27789;50.840;4.386;2022-11-15T00:38:38;12.80;99.90
39677;DHT22;27789;50.840;4.386;2022-11-15T00:41:05;12.70;99.90
39677;DHT22;27789;50.840;4.386;2022-11-15T00:43:32;12.70;99.90
39677;DHT22;27789;50.840;4.386;2022-11-15T00:45:58;12.70;99.90
39677;DHT22;27789;50.840;4.386;2022-11-15T00:48:24;12.80;99.90
39677;DHT22;27789;50.840;4.386;2022-11-15T00:50:50;12.70;99.90
39677;DHT22;27789;50.840;4.386;2022-11-15T00:53:16;12.70;99.90
39677;DHT22;27789;50.840;4.386;2022-11-15T00:55:42;12.80;99.90
39677;DHT22;27789;50.840;4.386;2022-11-15T00:58:08;12.80;99.90
39677;DHT22;27789;50.840;4.386;2022-11-15T01:00:33;12.80;99.90
39677;DHT22;27789;50.840;4.386;2022-11-15T01:03:00;12.80;99.90
39677;DHT22;27789;50.840;4.386;2022-11-15T01:05:26;12.80;99.90
39677;DHT22;27789;50.840;4.386;2022-11-15T01:07:53;12.80;99.90
39677;DHT22;27789;50.840;4.386;2022-11-15T01:10:18;12.80;99.90
39677;DHT22;27789;50.840;4.386;2022-11-15T01:12:44;12.80;99.90
39677;DHT22;27789;50.840;4.386;2022-11-15T01:15:10;12.80;99.90
39677;DHT22;27789;50.840;4.386;2022-11-15T01:17:35;12.80;99.90
39677;DHT22;27789;50.840;4.386;2022-11-15T01:20:01;12.80;99.90
39677;DHT22;27789;50.840;4.386;2022-11-15T01:22:27;12.80;99.90
39677;DHT22;27789;50.840;4.386;2022-11-15T01:24:52;12.80;99.90
39677;DHT22;27789;50.840;4.386;2022-11-15T01:27:18;12.80;99.90
39677;DHT22;27789;50.840;4.386;2022-11-15T01:29:44;12.80;99.90
39677;DHT22;27789;50.840;4.386;2022-11-15T01:32:12;12.80;99.90
39677;DHT22;27789;50.840;4.386;2022-11-15T01:34:38;12.70;99.90
39677;DHT22;27789;50.840;4.386;2022-11-15T01:37:03;12.70;99.90
39677;DHT22;27789;50.840;4.386;2022-11-15T01:39:29;12.70;99.90
39677;DHT22;27789;50.840;4.386;2022-11-15T01:41:55;12.70;99.90
39677;DHT22;27789;50.840;4.386;2022-11-15T01:44:36;12.70;99.90
39677;DHT22;27789;50.840;4.386;2022-11-15T01:47:04;12.70;99.90
39677;DHT22;27789;50.840;4.386;2022-11-15T01:49:34;12.70;99.90
39677;DHT22;27789;50.840;4.386;2022-11-15T01:52:02;12.70;99.90
39677;DHT22;27789;50.840;4.386;2022-11-15T01:54:30;12.70;99.90
39677;DHT22;27789;50.840;4.386;2022-11-15T01:57:08;12.60;99.90
39677;DHT22;27789;50.840;4.386;2022-11-15T01:59:36;12.60;99.90
39677;DHT22;27789;50.840;4.386;2022-11-15T02:02:02;12.70;99.90
39677;DHT22;27789;50.840;4.386;2022-11-15T02:04:45;12.60;99.90
39677;DHT22;27789;50.840;4.386;2022-11-15T02:07:14;12.70;99.90
39677;DHT22;27789;50.840;4.386;2022-11-15T02:09:41;12.70;99.90
39677;DHT22;27789;50.840;4.386;2022-11-15T02:12:08;12.60;99.90
39677;DHT22;27789;50.840;4.386;2022-11-15T02:14:36;12.60;99.90
39677;DHT22;27789;50.840;4.386;2022-11-15T02:17:24;12.60;99.90
39677;DHT22;27789;50.840;4.386;2022-11-15T02:22:51;12.60;99.90
39677;DHT22;27789;50.840;4.386;2022-11-15T02:30:53;12.60;99.90
39677;DHT22;27789;50.840;4.386;2022-11-15T02:41:09;12.60;99.90
39677;DHT22;27789;50.840;4.386;2022-11-15T02:43:46;12.60;99.90
39677;DHT22;27789;50.840;4.386;2022-11-15T02:49:21;12.60;99.90
39677;DHT22;27789;50.840;4.386;2022-11-15T02:51:49;12.60;99.90
39677;DHT22;27789;50.840;4.386;2022-11-15T02:54:24;12.60;99.90
39677;DHT22;27789;50.840;4.386;2022-11-15T02:56:53;12.60;99.90
39677;DHT22;27789;50.840;4.386;2022-11-15T03:10:10;12.50;99.90
39677;DHT22;27789;50.840;4.386;2022-11-15T03:12:55;12.50;99.90
39677;DHT22;27789;50.840;4.386;2022-11-15T03:15:31;12.40;99.90
39677;DHT22;27789;50.840;4.386;2022-11-15T03:18:01;12.40;99.90
39677;DHT22;27789;50.840;4.386;2022-11-15T03:20:30;12.50;99.90
39677;DHT22;27789;50.840;4.386;2022-11-15T03:23:01;12.40;99.90
39677;DHT22;27789;50.840;4.386;2022-11-15T03:25:28;12.40;99.90
39677;DHT22;27789;50.840;4.386;2022-11-15T03:27:57;12.50;99.90
39677;DHT22;27789;50.840;4.386;2022-11-15T03:30:24;12.50;99.90
39677;DHT22;27789;50.840;4.386;2022-11-15T03:32:53;12.50;99.90
39677;DHT22;27789;50.840;4.386;2022-11-15T03:35:32;12.50;99.90
39677;DHT22;27789;50.840;4.386;2022-11-15T03:48:59;12.40;99.90
39677;DHT22;27789;50.840;4.386;2022-11-15T03:51:26;12.40;99.90
39677;DHT22;27789;50.840;4.386;2022-11-15T03:53:52;12.40;99.90
39677;DHT22;27789;50.840;4.386;2022-11-15T03:56:18;12.40;99.90
39677;DHT22;27789;50.840;4.386;2022-11-15T03:58:43;12.30;99.90
39677;DHT22;27789;50.840;4.386;2022-11-15T04:01:09;12.30;99.90
39677;DHT22;27789;50.840;4.386;2022-11-15T04:03:34;12.30;99.90
39677;DHT22;27789;50.840;4.386;2022-11-15T04:06:00;12.40;99.90
39677;DHT22;27789;50.840;4.386;2022-11-15T04:08:25;12.40;99.90
39677;DHT22;27789;50.840;4.386;2022-11-15T04:10:51;12.30;99.90
39677;DHT22;27789;50.840;4.386;2022-11-15T04:13:17;12.30;99.90
39677;DHT22;27789;50.840;4.386;2022-11-15T04:15:42;12.20;99.90
39677;DHT22;27789;50.840;4.386;2022-11-15T04:18:08;12.30;99.90
39677;DHT22;27789;50.840;4.386;2022-11-15T04:20:33;12.30;99.90
39677;DHT22;27789;50.840;4.386;2022-11-15T04:23:14;12.30;99.90
39677;DHT22;27789;50.840;4.386;2022-11-15T04:25:54;12.30;99.90
39677;DHT22;27789;50.840;4.386;2022-11-15T04:28:20;12.30;99.90
39677;DHT22;27789;50.840;4.386;2022-11-15T04:30:46;12.30;99.90
39677;DHT22;27789;50.840;4.386;2022-11-15T04:33:11;12.40;99.90
39677;DHT22;27789;50.840;4.386;2022-11-15T04:35:37;12.40;99.90
39677;DHT22;27789;50.840;4.386;2022-11-15T04:38:04;12.30;99.90
39677;DHT22;27789;50.840;4.386;2022-11-15T04:40:30;12.30;99.90
39677;DHT22;27789;50.840;4.386;2022-11-15T04:42:56;12.30;99.90
39677;DHT22;27789;50.840;4.386;2022-11-15T04:45:22;12.30;99.90
39677;DHT22;27789;50.840;4.386;2022-11-15T04:47:48;12.40;99.90
39677;DHT22;27789;50.840;4.386;2022-11-15T04:50:14;12.30;99.90
39677;DHT22;27789;50.840;4.386;2022-11-15T04:52:42;12.30;99.90
39677;DHT22;27789;50.840;4.386;2022-11-15T04:55:09;12.20;99.90
39677;DHT22;27789;50.840;4.386;2022-11-15T04:57:34;12.20;99.90
39677;DHT22;27789;50.840;4.386;2022-11-15T05:00:00;12.10;99.90
39677;DHT22;27789;50.840;4.386;2022-11-15T05:02:25;12.10;99.90
39677;DHT22;27789;50.840;4.386;2022-11-15T05:05:11;12.10;99.90
39677;DHT22;27789;50.840;4.386;2022-11-15T05:07:37;12.10;99.90
39677;DHT22;27789;50.840;4.386;2022-11-15T05:10:02;12.00;99.90
39677;DHT22;27789;50.840;4.386;2022-11-15T05:12:28;12.00;99.90
39677;DHT22;27789;50.840;4.386;2022-11-15T05:14:53;12.00;99.90
39677;DHT22;27789;50.840;4.386;2022-11-15T05:17:19;12.00;99.90
39677;DHT22;27789;50.840;4.386;2022-11-15T05:19:44;12.00;99.90
39677;DHT22;27789;50.840;4.386;2022-11-15T05:22:10;11.90;99.90
39677;DHT22;27789;50.840;4.386;2022-11-15T05:24:36;11.90;99.90
39677;DHT22;27789;50.840;4.386;2022-11-15T05:27:01;11.90;99.90
39677;DHT22;27789;50.840;4.386;2022-11-15T05:29:27;11.80;99.90
39677;DHT22;27789;50.840;4.386;2022-11-15T05:31:52;11.80;99.90
39677;DHT22;27789;50.840;4.386;2022-11-15T05:34:18;11.70;99.90
39677;DHT22;27789;50.840;4.386;2022-11-15T05:36:44;11.70;99.90
39677;DHT22;27789;50.840;4.386;2022-11-15T05:39:11;11.60;99.90
39677;DHT22;27789;50.840;4.386;2022-11-15T05:41:44;11.60;99.90
39677;DHT22;27789;50.840;4.386;2022-11-15T05:44:14;11.60;99.90
39677;DHT22;27789;50.840;4.386;2022-11-15T05:46:42;11.50;99.90
39677;DHT22;27789;50.840;4.386;2022-11-15T05:49:12;11.50;99.90
39677;DHT22;27789;50.840;4.386;2022-11-15T05:51:39;11.40;99.90
39677;DHT22;27789;50.840;4.386;2022-11-15T05:54:05;11.40;99.90
39677;DHT22;27789;50.840;4.386;2022-11-15T05:56:30;11.30;99.90
39677;DHT22;27789;50.840;4.386;2022-11-15T05:58:57;11.40;99.90
39677;DHT22;27789;50.840;4.386;2022-11-15T06:01:24;11.40;99.90
39677;DHT22;27789;50.840;4.386;2022-11-15T06:03:50;11.40;99.90
39677;DHT22;27789;50.840;4.386;2022-11-15T06:06:16;11.40;99.90
39677;DHT22;27789;50.840;4.386;2022-11-15T06:08:41;11.30;99.90
39677;DHT22;27789;50.840;4.386;2022-11-15T06:11:07;11.20;99.90
39677;DHT22;27789;50.840;4.386;2022-11-15T06:13:33;11.10;99.90
39677;DHT22;27789;50.840;4.386;2022-11-15T06:15:59;11.20;99.90
39677;DHT22;27789;50.840;4.386;2022-11-15T06:18:26;11.10;99.90
39677;DHT22;27789;50.840;4.386;2022-11-15T06:20:51;11.10;99.90
39677;DHT22;27789;50.840;4.386;2022-11-15T06:23:18;11.10;99.90
39677;DHT22;27789;50.840;4.386;2022-11-15T06:25:44;11.10;99.90
39677;DHT22;27789;50.840;4.386;2022-11-15T06:28:09;11.10;99.90
39677;DHT22;27789;50.840;4.386;2022-11-15T06:30:35;11.10;99.90
39677;DHT22;27789;50.840;4.386;2022-11-15T06:33:04;11.10;99.90
39677;DHT22;27789;50.840;4.386;2022-11-15T06:35:33;11.00;99.90
39677;DHT22;27789;50.840;4.386;2022-11-15T06:38:03;11.10;99.90
39677;DHT22;27789;50.840;4.386;2022-11-15T06:40:29;11.10;99.90
39677;DHT22;27789;50.840;4.386;2022-11-15T06:42:58;11.00;99.90
39677;DHT22;27789;50.840;4.386;2022-11-15T06:45:25;11.00;99.90
39677;DHT22;27789;50.840;4.386;2022-11-15T06:47:50;11.00;99.90
39677;DHT22;27789;50.840;4.386;2022-11-15T06:50:16;11.00;99.90
39677;DHT22;27789;50.840;4.386;2022-11-15T06:52:42;11.00;99.90
39677;DHT22;27789;50.840;4.386;2022-11-15T06:55:08;11.00;99.90
39677;DHT22;27789;50.840;4.386;2022-11-15T06:57:33;11.00;99.90
39677;DHT22;27789;50.840;4.386;2022-11-15T06:59:59;10.90;99.90
39677;DHT22;27789;50.840;4.386;2022-11-15T07:02:25;10.90;99.90
39677;DHT22;27789;50.840;4.386;2022-11-15T07:04:51;10.90;99.90
39677;DHT22;27789;50.840;4.386;2022-11-15T07:07:16;10.90;99.90
39677;DHT22;27789;50.840;4.386;2022-11-15T07:09:42;10.90;99.90
39677;DHT22;27789;50.840;4.386;2022-11-15T07:12:08;10.90;99.90
39677;DHT22;27789;50.840;4.386;2022-11-15T07:14:33;10.80;99.90
39677;DHT22;27789;50.840;4.386;2022-11-15T07:16:59;10.80;99.90
39677;DHT22;27789;50.840;4.386;2022-11-15T07:19:25;10.80;99.90
39677;DHT22;27789;50.840;4.386;2022-11-15T07:21:51;10.90;99.90
39677;DHT22;27789;50.840;4.386;2022-11-15T07:24:16;10.90;99.90
39677;DHT22;27789;50.840;4.386;2022-11-15T07:26:42;10.80;99.90
39677;DHT22;27789;50.840;4.386;2022-11-15T07:29:07;10.90;99.90
39677;DHT22;27789;50.840;4.386;2022-11-15T07:31:33;10.80;99.90
39677;DHT22;27789;50.840;4.386;2022-11-15T07:33:58;10.80;99.90
39677;DHT22;27789;50.840;4.386;2022-11-15T07:36:24;10.90;99.90
39677;DHT22;27789;50.840;4.386;2022-11-15T07:38:50;10.80;99.90
39677;DHT22;27789;50.840;4.386;2022-11-15T07:41:15;10.80;99.90
39677;DHT22;27789;50.840;4.386;2022-11-15T07:43:41;10.90;99.90
39677;DHT22;27789;50.840;4.386;2022-11-15T07:46:08;10.90;99.90
39677;DHT22;27789;50.840;4.386;2022-11-15T07:48:38;10.90;99.90
39677;DHT22;27789;50.840;4.386;2022-11-15T07:51:07;10.90;99.90
39677;DHT22;27789;50.840;4.386;2022-11-15T07:53:32;10.90;99.90
39677;DHT22;27789;50.840;4.386;2022-11-15T07:55:58;10.90;99.90
39677;DHT22;27789;50.840;4.386;2022-11-15T07:58:24;10.80;99.90
39677;DHT22;27789;50.840;4.386;2022-11-15T08:00:49;10.80;99.90
39677;DHT22;27789;50.840;4.386;2022-11-15T08:03:16;10.90;99.90
39677;DHT22;27789;50.840;4.386;2022-11-15T08:05:50;10.90;99.90
39677;DHT22;27789;50.840;4.386;2022-11-15T08:08:16;10.90;99.90
39677;DHT22;27789;50.840;4.386;2022-11-15T08:10:42;10.90;99.90
39677;DHT22;27789;50.840;4.386;2022-11-15T08:13:09;10.90;99.90
39677;DHT22;27789;50.840;4.386;2022-11-15T08:15:36;10.90;99.90
39677;DHT22;27789;50.840;4.386;2022-11-15T08:18:04;11.00;99.90
39677;DHT22;27789;50.840;4.386;2022-11-15T08:20:31;11.00;99.90
39677;DHT22;27789;50.840;4.386;2022-11-15T08:23:01;11.10;99.90
39677;DHT22;27789;50.840;4.386;2022-11-15T08:25:28;11.10;99.90
39677;DHT22;27789;50.840;4.386;2022-11-15T08:27:56;11.10;99.90
39677;DHT22;27789;50.840;4.386;2022-11-15T08:30:22;11.10;99.90
39677;DHT22;27789;50.840;4.386;2022-11-15T08:32:49;11.10;99.90
39677;DHT22;27789;50.840;4.386;2022-11-15T08:35:15;11.10;99.90
39677;DHT22;27789;50.840;4.386;2022-11-15T08:37:40;11.10;99.90
39677;DHT22;27789;50.840;4.386;2022-11-15T08:40:06;11.10;99.90
39677;DHT22;27789;50.840;4.386;2022-11-15T08:42:32;11.10;99.90
39677;DHT22;27789;50.840;4.386;2022-11-15T08:44:59;11.20;99.90
39677;DHT22;27789;50.840;4.386;2022-11-15T08:47:25;11.20;99.90
39677;DHT22;27789;50.840;4.386;2022-11-15T08:49:50;11.20;99.90
39677;DHT22;27789;50.840;4.386;2022-11-15T08:52:16;11.20;99.90
39677;DHT22;27789;50.840;4.386;2022-11-15T08:54:42;11.30;99.90
39677;DHT22;27789;50.840;4.386;2022-11-15T08:57:07;11.30;99.90
39677;DHT22;27789;50.840;4.386;2022-11-15T08:59:35;11.30;99.90
39677;DHT22;27789;50.840;4.386;2022-11-15T09:02:01;11.40;99.90
39677;DHT22;27789;50.840;4.386;2022-11-15T09:04:29;11.50;99.90
39677;DHT22;27789;50.840;4.386;2022-11-15T09:06:55;11.80;99.90
39677;DHT22;27789;50.840;4.386;2022-11-15T09:09:21;11.60;99.90
39677;DHT22;27789;50.840;4.386;2022-11-15T09:11:46;11.60;99.90
39677;DHT22;27789;50.840;4.386;2022-11-15T09:14:12;11.50;99.90
39677;DHT22;27789;50.840;4.386;2022-11-15T09:16:38;11.50;99.90
39677;DHT22;27789;50.840;4.386;2022-11-15T09:19:04;11.50;99.90
39677;DHT22;27789;50.840;4.386;2022-11-15T09:21:30;11.40;99.90
39677;DHT22;27789;50.840;4.386;2022-11-15T09:23:56;11.50;99.90
39677;DHT22;27789;50.840;4.386;2022-11-15T09:26:21;11.90;99.90
39677;DHT22;27789;50.840;4.386;2022-11-15T09:28:47;12.40;99.90
39677;DHT22;27789;50.840;4.386;2022-11-15T09:31:13;12.50;99.90
39677;DHT22;27789;50.840;4.386;2022-11-15T09:33:39;12.70;99.90
39677;DHT22;27789;50.840;4.386;2022-11-15T09:36:09;13.30;99.90
39677;DHT22;27789;50.840;4.386;2022-11-15T09:38:35;13.60;99.90
39677;DHT22;27789;50.840;4.386;2022-11-15T09:49:01;14.30;99.90
39677;DHT22;27789;50.840;4.386;2022-11-15T09:56:36;13.80;99.90
39677;DHT22;27789;50.840;4.386;2022-11-15T10:01:47;13.60;99.90
39677;DHT22;27789;50.840;4.386;2022-11-15T10:04:15;13.80;99.90
39677;DHT22;27789;50.840;4.386;2022-11-15T10:06:46;13.80;99.90
39677;DHT22;27789;50.840;4.386;2022-11-15T10:09:24;13.90;99.90
39677;DHT22;27789;50.840;4.386;2022-11-15T10:11:51;14.10;99.90
39677;DHT22;27789;50.840;4.386;2022-11-15T10:14:20;14.50;99.90
39677;DHT22;27789;50.840;4.386;2022-11-15T10:17:02;15.10;99.90
39677;DHT22;27789;50.840;4.386;2022-11-15T10:22:25;15.40;99.90
39677;DHT22;27789;50.840;4.386;2022-11-15T10:25:32;15.40;99.90
39677;DHT22;27789;50.840;4.386;2022-11-15T10:28:03;15.50;99.90
39677;DHT22;27789;50.840;4.386;2022-11-15T10:30:40;16.10;99.90
39677;DHT22;27789;50.840;4.386;2022-11-15T10:35:42;16.60;99.90
39677;DHT22;27789;50.840;4.386;2022-11-15T10:38:10;16.90;99.90
39677;DHT22;27789;50.840;4.386;2022-11-15T10:40:37;17.00;99.90
39677;DHT22;27789;50.840;4.386;2022-11-15T10:43:15;16.70;99.90
39677;DHT22;27789;50.840;4.386;2022-11-15T10:45:41;16.20;99.90
39677;DHT22;27789;50.840;4.386;2022-11-15T10:50:45;15.20;99.90
39677;DHT22;27789;50.840;4.386;2022-11-15T10:53:35;14.90;99.90
39677;DHT22;27789;50.840;4.386;2022-11-15T10:56:07;14.70;99.90
39677;DHT22;27789;50.840;4.386;2022-11-15T10:58:39;14.60;99.90
39677;DHT22;27789;50.840;4.386;2022-11-15T11:01:15;14.70;99.90
39677;DHT22;27789;50.840;4.386;2022-11-15T11:03:43;14.90;99.90
39677;DHT22;27789;50.840;4.386;2022-11-15T11:06:14;14.90;99.90
39677;DHT22;27789;50.840;4.386;2022-11-15T11:08:54;14.90;99.90
39677;DHT22;27789;50.840;4.386;2022-11-15T11:11:20;14.80;99.90
39677;DHT22;27789;50.840;4.386;2022-11-15T11:13:46;14.70;99.90
39677;DHT22;27789;50.840;4.386;2022-11-15T11:18:47;14.50;99.90
39677;DHT22;27789;50.840;4.386;2022-11-15T11:21:17;14.40;99.90
39677;DHT22;27789;50.840;4.386;2022-11-15T11:23:54;14.50;99.90
39677;DHT22;27789;50.840;4.386;2022-11-15T11:39:56;15.10;99.90
39677;DHT22;27789;50.840;4.386;2022-11-15T11:47:40;14.50;99.90
39677;DHT22;27789;50.840;4.386;2022-11-15T11:50:20;14.30;99.90
39677;DHT22;27789;50.840;4.386;2022-11-15T11:53:04;14.20;99.90
39677;DHT22;27789;50.840;4.386;2022-11-15T11:55:45;14.20;99.90
39677;DHT22;27789;50.840;4.386;2022-11-15T12:01:11;14.00;99.90
39677;DHT22;27789;50.840;4.386;2022-11-15T12:06:35;14.10;99.90
39677;DHT22;27789;50.840;4.386;2022-11-15T12:16:59;14.00;99.90
39677;DHT22;27789;50.840;4.386;2022-11-15T12:19:25;14.00;99.90
39677;DHT22;27789;50.840;4.386;2022-11-15T12:29:39;13.90;99.90
39677;DHT22;27789;50.840;4.386;2022-11-15T12:34:49;14.00;99.90
39677;DHT22;27789;50.840;4.386;2022-11-15T12:45:00;14.00;99.90
39677;DHT22;27789;50.840;4.386;2022-11-15T12:47:26;14.00;99.90
39677;DHT22;27789;50.840;4.386;2022-11-15T12:49:53;14.10;99.90
39677;DHT22;27789;50.840;4.386;2022-11-15T12:52:19;14.10;99.90
39677;DHT22;27789;50.840;4.386;2022-11-15T12:54:53;14.20;99.90
39677;DHT22;27789;50.840;4.386;2022-11-15T12:59:59;14.30;99.90
39677;DHT22;27789;50.840;4.386;2022-11-15T13:02:43;14.30;99.90
39677;DHT22;27789;50.840;4.386;2022-11-15T13:07:59;14.40;99.90
39677;DHT22;27789;50.840;4.386;2022-11-15T13:12:58;14.50;99.90
39677;DHT22;27789;50.840;4.386;2022-11-15T13:21:00;14.30;99.90
39677;DHT22;27789;50.840;4.386;2022-11-15T13:23:26;14.30;99.90
39677;DHT22;27789;50.840;4.386;2022-11-15T13:33:43;14.30;99.90
39677;DHT22;27789;50.840;4.386;2022-11-15T13:36:20;14.30;99.90
39677;DHT22;27789;50.840;4.386;2022-11-15T13:41:23;14.30;99.90
39677;DHT22;27789;50.840;4.386;2022-11-15T13:43:50;14.30;99.90
39677;DHT22;27789;50.840;4.386;2022-11-15T13:48:44;14.30;99.90
39677;DHT22;27789;50.840;4.386;2022-11-15T13:53:57;14.30;99.90
39677;DHT22;27789;50.840;4.386;2022-11-15T13:56:25;14.40;99.90
39677;DHT22;27789;50.840;4.386;2022-11-15T13:58:53;14.40;99.90
39677;DHT22;27789;50.840;4.386;2022-11-15T14:01:21;14.40;99.90
39677;DHT22;27789;50.840;4.386;2022-11-15T14:03:54;14.30;99.90
39677;DHT22;27789;50.840;4.386;2022-11-15T14:06:22;14.20;99.90
39677;DHT22;27789;50.840;4.386;2022-11-15T14:11:37;14.30;99.90
39677;DHT22;27789;50.840;4.386;2022-11-15T14:16:43;14.20;99.90
39677;DHT22;27789;50.840;4.386;2022-11-15T14:22:11;14.20;99.90
39677;DHT22;27789;50.840;4.386;2022-11-15T14:24:38;14.20;99.90
39677;DHT22;27789;50.840;4.386;2022-11-15T14:27:35;14.20;99.90
39677;DHT22;27789;50.840;4.386;2022-11-15T14:30:00;14.20;99.90
39677;DHT22;27789;50.840;4.386;2022-11-15T14:32:44;14.20;99.90
39677;DHT22;27789;50.840;4.386;2022-11-15T14:35:15;14.20;99.90
39677;DHT22;27789;50.840;4.386;2022-11-15T14:37:41;14.10;99.90
39677;DHT22;27789;50.840;4.386;2022-11-15T14:40:11;14.10;99.90
39677;DHT22;27789;50.840;4.386;2022-11-15T14:42:37;14.00;99.90
39677;DHT22;27789;50.840;4.386;2022-11-15T14:45:07;14.00;99.90
39677;DHT22;27789;50.840;4.386;2022-11-15T14:47:34;14.00;99.90
39677;DHT22;27789;50.840;4.386;2022-11-15T14:49:59;14.00;99.90
39677;DHT22;27789;50.840;4.386;2022-11-15T14:52:27;13.90;99.90
39677;DHT22;27789;50.840;4.386;2022-11-15T14:54:54;13.90;99.90
39677;DHT22;27789;50.840;4.386;2022-11-15T14:57:20;13.90;99.90
39677;DHT22;27789;50.840;4.386;2022-11-15T14:59:46;13.90;99.90
39677;DHT22;27789;50.840;4.386;2022-11-15T15:02:23;13.80;99.90
39677;DHT22;27789;50.840;4.386;2022-11-15T15:04:50;13.80;99.90
39677;DHT22;27789;50.840;4.386;2022-11-15T15:07:16;13.70;99.90
39677;DHT22;27789;50.840;4.386;2022-11-15T15:09:43;13.70;99.90
39677;DHT22;27789;50.840;4.386;2022-11-15T15:12:21;13.70;99.90
39677;DHT22;27789;50.840;4.386;2022-11-15T15:14:48;13.70;99.90
39677;DHT22;27789;50.840;4.386;2022-11-15T15:17:14;13.70;99.90
39677;DHT22;27789;50.840;4.386;2022-11-15T15:19:40;13.70;99.90
39677;DHT22;27789;50.840;4.386;2022-11-15T15:22:11;13.70;99.90
39677;DHT22;27789;50.840;4.386;2022-11-15T15:24:39;13.70;99.90
39677;DHT22;27789;50.840;4.386;2022-11-15T15:27:04;13.70;99.90
39677;DHT22;27789;50.840;4.386;2022-11-15T15:29:30;13.70;99.90
39677;DHT22;27789;50.840;4.386;2022-11-15T15:31:55;13.60;99.90
39677;DHT22;27789;50.840;4.386;2022-11-15T15:34:21;13.60;99.90
39677;DHT22;27789;50.840;4.386;2022-11-15T15:36:46;13.60;99.90
39677;DHT22;27789;50.840;4.386;2022-11-15T15:39:12;13.60;99.90
39677;DHT22;27789;50.840;4.386;2022-11-15T15:41:38;13.60;99.90
39677;DHT22;27789;50.840;4.386;2022-11-15T15:44:03;13.50;99.90
39677;DHT22;27789;50.840;4.386;2022-11-15T15:46:29;13.50;99.90
39677;DHT22;27789;50.840;4.386;2022-11-15T15:48:54;13.50;99.90
39677;DHT22;27789;50.840;4.386;2022-11-15T15:51:20;13.50;99.90
39677;DHT22;27789;50.840;4.386;2022-11-15T15:53:47;13.40;99.90
39677;DHT22;27789;50.840;4.386;2022-11-15T15:56:12;13.40;99.90
39677;DHT22;27789;50.840;4.386;2022-11-15T15:58:38;13.40;99.90
39677;DHT22;27789;50.840;4.386;2022-11-15T16:01:03;13.40;99.90
39677;DHT22;27789;50.840;4.386;2022-11-15T16:03:29;13.30;99.90
39677;DHT22;27789;50.840;4.386;2022-11-15T16:05:55;13.30;99.90
39677;DHT22;27789;50.840;4.386;2022-11-15T16:08:23;13.30;99.90
39677;DHT22;27789;50.840;4.386;2022-11-15T16:10:49;13.30;99.90
39677;DHT22;27789;50.840;4.386;2022-11-15T16:13:15;13.30;99.90
39677;DHT22;27789;50.840;4.386;2022-11-15T16:15:41;13.30;99.90
39677;DHT22;27789;50.840;4.386;2022-11-15T16:18:15;13.30;99.90
39677;DHT22;27789;50.840;4.386;2022-11-15T16:20:46;13.30;99.90
39677;DHT22;27789;50.840;4.386;2022-11-15T16:23:14;13.30;99.90
39677;DHT22;27789;50.840;4.386;2022-11-15T16:31:01;13.30;99.90
39677;DHT22;27789;50.840;4.386;2022-11-15T16:33:26;13.20;99.90
39677;DHT22;27789;50.840;4.386;2022-11-15T16:35:52;13.30;99.90
39677;DHT22;27789;50.840;4.386;2022-11-15T16:38:18;13.30;99.90
39677;DHT22;27789;50.840;4.386;2022-11-15T16:40:43;13.20;99.90
39677;DHT22;27789;50.840;4.386;2022-11-15T16:43:09;13.30;99.90
39677;DHT22;27789;50.840;4.386;2022-11-15T16:45:35;13.30;99.90
39677;DHT22;27789;50.840;4.386;2022-11-15T16:48:01;13.30;99.90
39677;DHT22;27789;50.840;4.386;2022-11-15T16:50:29;13.30;99.90
39677;DHT22;27789;50.840;4.386;2022-11-15T16:52:57;13.30;99.90
39677;DHT22;27789;50.840;4.386;2022-11-15T16:55:26;13.30;99.90
39677;DHT22;27789;50.840;4.386;2022-11-15T16:57:52;13.20;99.90
39677;DHT22;27789;50.840;4.386;2022-11-15T17:00:19;13.20;99.90
39677;DHT22;27789;50.840;4.386;2022-11-15T17:02:47;13.20;99.90
39677;DHT22;27789;50.840;4.386;2022-11-15T17:05:14;13.20;99.90
39677;DHT22;27789;50.840;4.386;2022-11-15T17:07:40;13.20;99.90
39677;DHT22;27789;50.840;4.386;2022-11-15T17:10:08;13.20;99.90
39677;DHT22;27789;50.840;4.386;2022-11-15T17:12:34;13.20;99.90
39677;DHT22;27789;50.840;4.386;2022-11-15T17:15:00;13.20;99.90
39677;DHT22;27789;50.840;4.386;2022-11-15T17:17:26;13.20;99.90
39677;DHT22;27789;50.840;4.386;2022-11-15T17:19:52;13.20;99.90
39677;DHT22;27789;50.840;4.386;2022-11-15T17:22:19;13.10;99.90
39677;DHT22;27789;50.840;4.386;2022-11-15T17:24:45;13.20;99.90
39677;DHT22;27789;50.840;4.386;2022-11-15T17:27:10;13.20;99.90
39677;DHT22;27789;50.840;4.386;2022-11-15T17:29:36;13.20;99.90
39677;DHT22;27789;50.840;4.386;2022-11-15T17:32:01;13.20;99.90
39677;DHT22;27789;50.840;4.386;2022-11-15T17:34:27;13.20;99.90
39677;DHT22;27789;50.840;4.386;2022-11-15T17:36:52;13.20;99.90
39677;DHT22;27789;50.840;4.386;2022-11-15T17:39:18;13.30;99.90
39677;DHT22;27789;50.840;4.386;2022-11-15T17:41:45;13.20;99.90
39677;DHT22;27789;50.840;4.386;2022-11-15T17:44:11;13.20;99.90
39677;DHT22;27789;50.840;4.386;2022-11-15T17:46:37;13.20;99.90
39677;DHT22;27789;50.840;4.386;2022-11-15T17:49:04;13.20;99.90
39677;DHT22;27789;50.840;4.386;2022-11-15T17:51:30;13.20;99.90
39677;DHT22;27789;50.840;4.386;2022-11-15T17:53:56;13.20;99.90
39677;DHT22;27789;50.840;4.386;2022-11-15T17:56:23;13.20;99.90
39677;DHT22;27789;50.840;4.386;2022-11-15T17:58:51;13.10;99.90
39677;DHT22;27789;50.840;4.386;2022-11-15T18:01:25;13.10;99.90
39677;DHT22;27789;50.840;4.386;2022-11-15T18:03:52;13.20;99.90
39677;DHT22;27789;50.840;4.386;2022-11-15T18:06:19;13.20;99.90
39677;DHT22;27789;50.840;4.386;2022-11-15T18:08:46;13.20;99.90
39677;DHT22;27789;50.840;4.386;2022-11-15T18:11:16;13.20;99.90
39677;DHT22;27789;50.840;4.386;2022-11-15T18:13:44;13.20;99.90
39677;DHT22;27789;50.840;4.386;2022-11-15T18:16:15;13.20;99.90